createdAt,value
2023-05-10T00:00:30.415Z,75.35
2023-05-10T00:01:30.396Z,74.43
2023-05-10T00:02:30.449Z,74.32
2023-05-10T00:03:30.449Z,75.15
2023-05-10T00:04:30.396Z,75.04
2023-05-10T00:05:30.324Z,75.66
2023-05-10T00:06:30.337Z,74.43
2023-05-10T00:07:30.335Z,74.74
2023-05-10T00:08:30.320Z,74.12
2023-05-10T00:09:30.311Z,73.10
2023-05-10T00:10:30.286Z,73.74
2023-05-10T00:11:30.265Z,73.64
2023-05-10T00:12:30.253Z,75.08
2023-05-10T00:13:30.394Z,74.98
2023-05-10T00:14:30.247Z,75.38
2023-05-10T00:15:30.220Z,75.80
2023-05-10T00:16:30.221Z,75.59
2023-05-10T00:17:30.228Z,74.46
2023-05-10T00:18:30.178Z,76.10
2023-05-10T00:19:30.176Z,74.98
2023-05-10T00:20:30.192Z,74.36
2023-05-10T00:21:30.149Z,73.64
2023-05-10T00:22:30.161Z,72.61
2023-05-10T00:23:30.133Z,73.13
2023-05-10T00:24:30.132Z,74.26
2023-05-10T00:25:30.072Z,74.57
2023-05-10T00:26:30.113Z,73.95
2023-05-10T00:27:30.062Z,73.85
2023-05-10T00:28:30.067Z,73.78
2023-05-10T00:29:30.023Z,77.13
2023-05-10T00:30:30.034Z,77.48
2023-05-10T00:31:30.068Z,77.78
2023-05-10T00:32:30.049Z,77.99
2023-05-10T00:33:29.982Z,76.25
2023-05-10T00:34:29.959Z,77.58
2023-05-10T00:35:29.947Z,77.89
2023-05-10T00:36:29.948Z,76.65
2023-05-10T00:37:29.939Z,77.06
2023-05-10T00:38:29.921Z,76.45
2023-05-10T00:39:29.894Z,76.35
2023-05-10T00:40:29.892Z,76.97
2023-05-10T00:41:29.878Z,76.04
2023-05-10T00:42:29.877Z,77.06
2023-05-10T00:43:29.844Z,76.76
2023-05-10T00:44:29.825Z,77.03
2023-05-10T00:45:29.818Z,77.55
2023-05-10T00:46:29.887Z,76.62
2023-05-10T00:47:29.858Z,77.44
2023-05-10T00:48:29.805Z,78.67
2023-05-10T00:49:29.759Z,78.27
2023-05-10T00:50:29.745Z,77.85
2023-05-10T00:51:29.797Z,79.49
2023-05-10T00:52:29.741Z,78.88
2023-05-10T00:53:29.741Z,78.88
2023-05-10T00:54:29.692Z,77.95
2023-05-10T00:55:29.689Z,79.80
2023-05-10T00:56:29.698Z,80.21
2023-05-10T00:57:29.653Z,80.01
2023-05-10T00:58:29.682Z,78.27
2023-05-10T00:59:29.673Z,77.95
2023-05-10T01:00:29.664Z,79.49
2023-05-10T01:01:29.660Z,78.98
2023-05-10T01:02:29.689Z,79.29
2023-05-10T01:03:29.610Z,78.43
2023-05-10T01:04:29.615Z,77.71
2023-05-10T01:05:29.579Z,78.53
2023-05-10T01:06:29.531Z,77.40
2023-05-10T01:07:29.520Z,77.92
2023-05-10T01:08:29.555Z,77.92
2023-05-10T01:09:29.507Z,79.25
2023-05-10T01:10:29.565Z,78.94
2023-05-10T01:11:29.503Z,77.71
2023-05-10T01:12:29.516Z,77.40
2023-05-10T01:13:29.526Z,78.12
2023-05-10T01:14:29.454Z,78.64
2023-05-10T01:15:29.437Z,77.92
2023-05-10T01:16:29.506Z,77.00
2023-05-10T01:17:29.432Z,75.87
2023-05-10T01:18:29.375Z,77.51
2023-05-10T01:19:29.392Z,77.10
2023-05-10T01:20:29.370Z,78.33
2023-05-10T01:21:29.344Z,79.36
2023-05-10T01:22:29.348Z,79.15
2023-05-10T01:23:29.329Z,79.15
2023-05-10T01:24:29.325Z,78.85
2023-05-10T01:25:29.290Z,78.43
2023-05-10T01:26:29.279Z,78.02
2023-05-10T01:27:29.266Z,78.53
2023-05-10T01:28:29.259Z,78.33
2023-05-10T01:29:29.251Z,77.71
2023-05-10T01:30:29.225Z,78.74
2023-05-10T01:31:29.241Z,78.23
2023-05-10T01:32:29.233Z,77.61
2023-05-10T01:33:29.221Z,77.40
2023-05-10T01:34:29.193Z,77.30
2023-05-10T01:35:29.208Z,78.02
2023-05-10T01:36:29.138Z,78.74
2023-05-10T01:37:29.146Z,77.92
2023-05-10T01:38:29.131Z,78.53
2023-05-10T01:39:29.127Z,79.15
2023-05-10T01:40:29.084Z,78.85
2023-05-10T01:41:29.112Z,77.61
2023-05-10T01:42:29.063Z,77.00
2023-05-10T01:43:29.078Z,76.68
2023-05-10T01:44:29.065Z,76.68
2023-05-10T01:45:29.025Z,76.28
2023-05-10T01:46:29.050Z,75.76
2023-05-10T01:47:29.076Z,76.79
2023-05-10T01:48:29.012Z,76.17
2023-05-10T01:49:28.974Z,75.66
2023-05-10T01:50:28.950Z,75.56
2023-05-10T01:51:28.955Z,74.67
2023-05-10T01:52:28.948Z,74.26
2023-05-10T01:53:28.927Z,75.29
2023-05-10T01:54:28.912Z,75.38
2023-05-10T01:55:28.897Z,74.87
2023-05-10T01:56:28.895Z,75.08
2023-05-10T01:57:28.931Z,74.77
2023-05-10T01:58:28.891Z,74.57
2023-05-10T01:59:28.854Z,76.42
2023-05-10T02:00:28.868Z,75.18
2023-05-10T02:01:28.864Z,74.57
2023-05-10T02:02:28.867Z,73.47
2023-05-10T02:03:28.818Z,72.55
2023-05-10T02:04:28.791Z,72.65
2023-05-10T02:05:28.776Z,72.55
2023-05-10T02:06:28.757Z,73.36
2023-05-10T02:07:28.981Z,73.88
2023-05-10T02:08:28.710Z,73.16
2023-05-10T02:09:28.802Z,72.34
2023-05-10T02:10:28.699Z,72.75
2023-05-10T02:11:28.719Z,73.88
2023-05-10T02:12:28.672Z,73.57
2023-05-10T02:13:28.760Z,72.65
2023-05-10T02:14:28.678Z,73.09
2023-05-10T02:15:28.655Z,72.58
2023-05-10T02:16:28.699Z,72.89
2023-05-10T02:17:28.646Z,74.84
2023-05-10T02:18:28.605Z,76.18
2023-05-10T02:19:28.582Z,75.76
2023-05-10T02:20:28.570Z,75.04
2023-05-10T02:21:28.596Z,75.15
2023-05-10T02:22:28.548Z,75.35
2023-05-10T02:23:28.538Z,75.46
2023-05-10T02:24:28.504Z,74.53
2023-05-10T02:25:28.517Z,73.81
2023-05-10T02:26:28.481Z,73.40
2023-05-10T02:27:28.514Z,73.50
2023-05-10T02:28:28.466Z,72.99
2023-05-10T02:29:28.490Z,75.56
2023-05-10T02:30:28.462Z,75.56
2023-05-10T02:31:28.486Z,76.18
2023-05-10T02:32:28.529Z,75.08
2023-05-10T02:33:28.408Z,74.15
2023-05-10T02:34:28.400Z,73.95
2023-05-10T02:35:28.378Z,74.87
2023-05-10T02:36:28.358Z,73.74
2023-05-10T02:37:28.349Z,75.39
2023-05-10T02:38:28.318Z,76.83
2023-05-10T02:39:28.345Z,77.45
2023-05-10T02:40:28.921Z,77.55
2023-05-10T02:41:28.285Z,77.65
2023-05-10T02:42:28.267Z,76.42
2023-05-10T02:43:28.310Z,75.18
2023-05-10T02:44:28.264Z,77.75
2023-05-10T02:45:28.255Z,78.99
2023-05-10T02:46:28.369Z,78.41
2023-05-10T02:47:28.245Z,78.72
2023-05-10T02:48:28.214Z,77.38
2023-05-10T02:49:28.190Z,76.35
2023-05-10T02:50:28.191Z,77.17
2023-05-10T02:51:28.146Z,76.35
2023-05-10T02:52:28.156Z,77.17
2023-05-10T02:53:28.189Z,77.38
2023-05-10T02:54:28.123Z,77.17
2023-05-10T02:55:28.111Z,79.44
2023-05-10T02:56:28.094Z,79.13
2023-05-10T02:57:28.114Z,78.82
2023-05-10T02:58:28.088Z,78.51
2023-05-10T02:59:28.047Z,78.72
2023-05-10T03:00:28.052Z,77.28
2023-05-10T03:01:28.077Z,77.07
2023-05-10T03:02:28.081Z,76.66
2023-05-10T03:03:28.003Z,77.79
2023-05-10T03:04:28.037Z,77.69
2023-05-10T03:05:27.979Z,78.72
2023-05-10T03:06:27.971Z,78.92
2023-05-10T03:07:27.953Z,79.33
2023-05-10T03:08:27.933Z,80.88
2023-05-10T03:09:27.947Z,80.88
2023-05-10T03:10:27.907Z,80.16
2023-05-10T03:11:27.915Z,80.67
2023-05-10T03:12:27.922Z,79.75
2023-05-10T03:13:28.024Z,78.92
2023-05-10T03:14:27.866Z,79.03
2023-05-10T03:15:27.873Z,78.92
2023-05-10T03:16:28.133Z,78.82
2023-05-10T03:17:27.892Z,78.20
2023-05-10T03:18:27.854Z,77.58
2023-05-10T03:19:27.807Z,77.07
2023-05-10T03:20:27.773Z,77.17
2023-05-10T03:21:27.790Z,76.86
2023-05-10T03:22:27.757Z,76.76
2023-05-10T03:23:27.740Z,77.58
2023-05-10T03:24:27.727Z,76.97
2023-05-10T03:25:27.711Z,76.86
2023-05-10T03:26:27.731Z,76.35
2023-05-10T03:27:27.715Z,77.17
2023-05-10T03:28:27.712Z,78.30
2023-05-10T03:29:27.684Z,78.20
2023-05-10T03:30:27.653Z,78.72
2023-05-10T03:31:27.744Z,78.51
2023-05-10T03:32:27.627Z,79.03
2023-05-10T03:33:27.620Z,81.19
2023-05-10T03:34:27.589Z,81.49
2023-05-10T03:35:27.589Z,82.53
2023-05-10T03:36:27.561Z,81.87
2023-05-10T03:37:27.565Z,81.97
2023-05-10T03:38:30.274Z,80.74
2023-05-10T03:39:27.534Z,81.05
2023-05-10T03:40:27.518Z,81.15
2023-05-10T03:41:27.533Z,79.71
2023-05-10T03:42:27.487Z,80.22
2023-05-10T03:43:27.481Z,80.43
2023-05-10T03:44:27.467Z,80.94
2023-05-10T03:45:27.549Z,81.15
2023-05-10T03:46:27.493Z,80.63
2023-05-10T03:47:27.456Z,79.81
2023-05-10T03:48:27.431Z,78.89
2023-05-10T03:49:27.407Z,78.68
2023-05-10T03:50:27.379Z,78.89
2023-05-10T03:51:27.367Z,79.16
2023-05-10T03:52:27.384Z,79.88
2023-05-10T03:53:27.359Z,79.36
2023-05-10T03:54:27.356Z,79.47
2023-05-10T03:55:27.332Z,78.85
2023-05-10T03:56:27.314Z,79.77
2023-05-10T03:57:27.346Z,81.73
2023-05-10T03:58:27.274Z,82.00
2023-05-10T03:59:27.277Z,82.00
2023-05-10T04:00:27.262Z,81.38
2023-05-10T04:01:27.235Z,81.18
2023-05-10T04:02:27.315Z,80.56
2023-05-10T04:03:27.266Z,79.70
2023-05-10T04:04:27.220Z,81.45
2023-05-10T04:05:27.195Z,82.27
2023-05-10T04:06:27.234Z,81.62
2023-05-10T04:07:27.173Z,81.41
2023-05-10T04:08:27.166Z,81.71
2023-05-10T04:09:27.151Z,82.23
2023-05-10T04:10:27.102Z,81.88
2023-05-10T04:11:27.128Z,81.16
2023-05-10T04:12:27.095Z,81.16
2023-05-10T04:13:27.156Z,80.21
2023-05-10T04:14:27.062Z,81.02
2023-05-10T04:15:27.046Z,80.51
2023-05-10T04:16:27.086Z,80.58
2023-05-10T04:17:27.160Z,81.09
2023-05-10T04:18:27.017Z,79.04
2023-05-10T04:19:27.005Z,79.62
2023-05-10T04:20:26.973Z,79.11
2023-05-10T04:21:26.966Z,78.49
2023-05-10T04:22:26.968Z,77.87
2023-05-10T04:23:26.997Z,78.66
2023-05-10T04:24:29.084Z,78.35
2023-05-10T04:25:26.941Z,77.84
2023-05-10T04:26:26.931Z,78.21
2023-05-10T04:27:26.923Z,77.91
2023-05-10T04:28:26.903Z,77.70
2023-05-10T04:29:26.876Z,76.84
2023-05-10T04:30:26.860Z,76.43
2023-05-10T04:31:26.905Z,75.79
2023-05-10T04:32:26.875Z,75.59
2023-05-10T04:33:26.838Z,76.20
2023-05-10T04:34:26.816Z,76.37
2023-05-10T04:35:26.798Z,75.45
2023-05-10T04:36:26.815Z,74.39
2023-05-10T04:37:26.781Z,74.66
2023-05-10T04:38:26.756Z,73.16
2023-05-10T04:39:26.754Z,72.69
2023-05-10T04:40:26.734Z,70.99
2023-05-10T04:41:26.719Z,69.63
2023-05-10T04:42:26.706Z,68.01
2023-05-10T04:43:26.682Z,64.90
2023-05-10T04:44:26.664Z,65.27
2023-05-10T04:45:26.661Z,64.00
2023-05-10T04:46:26.801Z,62.01
2023-05-10T04:47:26.684Z,60.97
2023-05-10T04:48:26.653Z,60.50
2023-05-10T04:49:26.607Z,60.38
2023-05-10T04:50:26.596Z,58.86
2023-05-10T04:51:26.664Z,58.53
2023-05-10T04:52:26.577Z,58.02
2023-05-10T04:53:26.556Z,56.98
2023-05-10T04:54:26.579Z,56.52
2023-05-10T04:55:26.526Z,55.39
2023-05-10T04:56:26.538Z,54.53
2023-05-10T04:57:26.500Z,53.50
2023-05-10T04:58:26.488Z,53.27
2023-05-10T04:59:26.489Z,51.93
2023-05-10T05:00:26.477Z,51.01
2023-05-10T05:01:26.529Z,52.22
2023-05-10T05:02:26.496Z,52.19
2023-05-10T05:03:26.559Z,52.17
2023-05-10T05:04:26.416Z,50.53
2023-05-10T05:05:26.411Z,49.01
2023-05-10T05:06:26.397Z,48.10
2023-05-10T05:07:26.404Z,48.90
2023-05-10T05:08:26.353Z,49.80
2023-05-10T05:09:26.346Z,49.78
2023-05-10T05:10:26.347Z,48.75
2023-05-10T05:11:26.328Z,47.25
2023-05-10T05:12:26.300Z,48.46
2023-05-10T05:13:26.358Z,47.75
2023-05-10T05:14:26.338Z,47.25
2023-05-10T05:15:26.310Z,47.85
2023-05-10T05:16:26.274Z,47.33
2023-05-10T05:17:26.285Z,47.20
2023-05-10T05:18:26.217Z,45.98
2023-05-10T05:19:26.232Z,46.36
2023-05-10T05:20:26.213Z,44.64
2023-05-10T05:21:26.182Z,43.51
2023-05-10T05:22:26.180Z,44.57
2023-05-10T05:23:26.156Z,42.73
2023-05-10T05:24:26.172Z,44.21
2023-05-10T05:25:26.156Z,42.40
2023-05-10T05:26:26.127Z,40.88
2023-05-10T05:27:26.113Z,41.50
2023-05-10T05:28:26.113Z,41.91
2023-05-10T05:29:26.105Z,42.15
2023-05-10T05:30:26.088Z,42.57
2023-05-10T05:31:26.080Z,44.09
2023-05-10T05:32:26.101Z,43.41
2023-05-10T05:33:26.026Z,44.01
2023-05-10T05:34:26.037Z,44.04
2023-05-10T05:35:26.006Z,44.46
2023-05-10T05:36:26.010Z,45.50
2023-05-10T05:37:25.997Z,46.03
2023-05-10T05:38:25.996Z,47.55
2023-05-10T05:39:25.960Z,47.17
2023-05-10T05:40:25.943Z,48.20
2023-05-10T05:41:25.952Z,48.30
2023-05-10T05:42:25.909Z,48.43
2023-05-10T05:43:25.942Z,48.65
2023-05-10T05:44:25.890Z,49.48
2023-05-10T05:45:25.872Z,51.18
2023-05-10T05:46:25.933Z,52.22
2023-05-10T05:47:25.868Z,50.63
2023-05-10T05:48:25.852Z,51.03
2023-05-10T05:49:25.823Z,50.93
2023-05-10T05:50:25.806Z,51.43
2023-05-10T05:51:25.806Z,51.86
2023-05-10T05:52:25.901Z,51.66
2023-05-10T05:53:25.780Z,52.47
2023-05-10T05:54:25.756Z,52.47
2023-05-10T05:55:25.755Z,52.77
2023-05-10T05:56:25.826Z,52.67
2023-05-10T05:57:25.720Z,52.37
2023-05-10T05:58:25.733Z,53.17
2023-05-10T05:59:25.685Z,53.07
2023-05-10T06:00:25.693Z,52.87
2023-05-10T06:01:25.659Z,52.37
2023-05-10T06:02:25.729Z,52.17
2023-05-10T06:03:25.768Z,52.47
2023-05-10T06:04:25.718Z,51.93
2023-05-10T06:05:25.604Z,53.05
2023-05-10T06:06:25.643Z,53.34
2023-05-10T06:07:25.610Z,52.74
2023-05-10T06:08:25.571Z,52.74
2023-05-10T06:09:25.639Z,51.21
2023-05-10T06:10:25.562Z,52.22
2023-05-10T06:11:25.541Z,51.71
2023-05-10T06:12:25.533Z,52.82
2023-05-10T06:13:25.584Z,52.34
2023-05-10T06:14:25.519Z,52.51
2023-05-10T06:15:25.471Z,53.02
2023-05-10T06:16:25.517Z,52.11
2023-05-10T06:17:25.455Z,52.01
2023-05-10T06:18:25.440Z,52.01
2023-05-10T06:19:25.458Z,51.79
2023-05-10T06:20:25.407Z,51.29
2023-05-10T06:21:25.469Z,50.89
2023-05-10T06:22:25.402Z,51.39
2023-05-10T06:23:25.374Z,51.09
2023-05-10T06:24:25.367Z,51.99
2023-05-10T06:25:25.376Z,51.29
2023-05-10T06:26:25.345Z,50.48
2023-05-10T06:27:25.352Z,51.39
2023-05-10T06:28:25.314Z,52.29
2023-05-10T06:29:25.298Z,52.29
2023-05-10T06:30:25.292Z,51.89
2023-05-10T06:31:25.318Z,52.17
2023-05-10T06:32:25.265Z,52.37
2023-05-10T06:33:25.251Z,51.36
2023-05-10T06:34:25.266Z,51.36
2023-05-10T06:35:25.238Z,51.97
2023-05-10T06:36:25.199Z,51.97
2023-05-10T06:37:25.198Z,51.56
2023-05-10T06:38:25.178Z,51.16
2023-05-10T06:39:25.204Z,51.36
2023-05-10T06:40:25.202Z,51.16
2023-05-10T06:41:25.133Z,52.17
2023-05-10T06:42:25.148Z,52.67
2023-05-10T06:43:25.105Z,51.84
2023-05-10T06:44:25.161Z,52.04
2023-05-10T06:45:25.113Z,52.04
2023-05-10T06:46:25.107Z,52.55
2023-05-10T06:47:25.073Z,51.54
2023-05-10T06:48:25.078Z,50.53
2023-05-10T06:49:25.039Z,51.64
2023-05-10T06:50:25.042Z,52.55
2023-05-10T06:51:25.002Z,51.51
2023-05-10T06:52:25.622Z,51.21
2023-05-10T06:53:24.980Z,50.89
2023-05-10T06:54:24.984Z,49.28
2023-05-10T06:55:24.955Z,49.48
2023-05-10T06:56:24.977Z,49.78
2023-05-10T06:58:26.374Z,49.46
2023-05-10T06:59:24.956Z,49.13
2023-05-10T07:00:24.970Z,49.21
2023-05-10T07:01:25.291Z,48.58
2023-05-10T07:02:25.010Z,48.16
2023-05-10T07:03:24.914Z,47.34
2023-05-10T07:04:24.956Z,47.31
2023-05-10T07:05:24.865Z,46.59
2023-05-10T07:06:32.984Z,46.07
2023-05-10T07:07:25.789Z,45.85
2023-05-10T07:08:24.846Z,44.73
2023-05-10T07:09:24.804Z,44.01
2023-05-10T07:10:24.787Z,44.87
2023-05-10T07:11:24.761Z,43.35
2023-05-10T07:12:24.756Z,41.66
2023-05-10T07:13:24.807Z,42.03
2023-05-10T07:14:24.725Z,42.21
2023-05-10T07:15:24.693Z,41.30
2023-05-10T07:16:24.754Z,41.08
2023-05-10T07:17:24.721Z,40.74
2023-05-10T07:18:24.707Z,41.79
2023-05-10T07:19:24.634Z,39.07
2023-05-10T07:20:24.650Z,39.47
2023-05-10T07:21:24.651Z,38.68
2023-05-10T07:22:24.669Z,39.69
2023-05-10T07:23:24.603Z,39.97
2023-05-10T07:24:24.583Z,39.47
2023-05-10T07:25:24.575Z,38.66
2023-05-10T07:26:24.582Z,39.53
2023-05-10T07:27:24.574Z,39.00
2023-05-10T07:28:24.528Z,36.88
2023-05-10T07:29:24.512Z,36.01
2023-05-10T07:30:24.597Z,37.12
2023-05-10T07:31:24.542Z,37.34
2023-05-10T07:32:24.570Z,38.72
2023-05-10T07:33:24.492Z,39.73
2023-05-10T07:34:26.350Z,38.56
2023-05-10T07:35:24.432Z,37.79
2023-05-10T07:36:24.466Z,37.92
2023-05-10T07:37:24.440Z,37.74
2023-05-10T07:38:24.389Z,38.95
2023-05-10T07:39:27.734Z,39.57
2023-05-10T07:40:24.442Z,40.18
2023-05-10T07:41:24.363Z,40.20
2023-05-10T07:42:24.367Z,41.31
2023-05-10T07:43:24.324Z,41.22
2023-05-10T07:44:24.354Z,41.61
2023-05-10T07:45:25.458Z,41.25
2023-05-10T07:46:24.448Z,41.88
2023-05-10T07:47:24.315Z,42.10
2023-05-10T07:48:24.302Z,42.91
2023-05-10T07:49:24.247Z,43.81
2023-05-10T07:50:24.250Z,44.41
2023-05-10T07:51:25.226Z,43.43
2023-05-10T07:52:24.212Z,44.35
2023-05-10T07:53:24.257Z,44.78
2023-05-10T07:54:24.192Z,45.79
2023-05-10T07:55:24.210Z,46.59
2023-05-10T07:56:24.157Z,46.42
2023-05-10T07:57:24.136Z,46.51
2023-05-10T07:58:24.152Z,46.64
2023-05-10T07:59:24.106Z,47.26
2023-05-10T08:00:24.119Z,48.07
2023-05-10T08:01:24.259Z,47.69
2023-05-10T08:02:24.105Z,48.58
2023-05-10T08:03:24.153Z,49.11
2023-05-10T08:04:24.092Z,49.01
2023-05-10T08:05:24.079Z,48.91
2023-05-10T08:06:24.019Z,49.43
2023-05-10T08:07:24.050Z,50.34
2023-05-10T08:08:24.029Z,50.36
2023-05-10T08:09:24.004Z,51.17
2023-05-10T08:10:24.031Z,51.37
2023-05-10T08:11:23.969Z,51.99
2023-05-10T08:12:23.948Z,52.29
2023-05-10T08:13:23.947Z,52.69
2023-05-10T08:14:23.934Z,52.69
2023-05-10T08:15:23.954Z,53.42
2023-05-10T08:16:24.042Z,53.62
2023-05-10T08:17:24.775Z,53.85
2023-05-10T08:18:23.916Z,53.95
2023-05-10T08:19:23.882Z,54.98
2023-05-10T08:20:23.861Z,54.88
2023-05-10T08:21:23.844Z,55.48
2023-05-10T08:22:23.825Z,55.41
2023-05-10T08:23:23.820Z,56.51
2023-05-10T08:24:23.825Z,56.14
2023-05-10T08:25:23.778Z,57.45
2023-05-10T08:26:23.775Z,56.74
2023-05-10T08:27:23.774Z,57.28
2023-05-10T08:28:23.762Z,57.28
2023-05-10T08:29:24.010Z,58.21
2023-05-10T08:30:23.709Z,58.61
2023-05-10T08:31:23.739Z,59.04
2023-05-10T08:32:23.738Z,59.84
2023-05-10T08:33:23.692Z,60.55
2023-05-10T08:34:23.833Z,60.98
2023-05-10T08:35:23.647Z,61.08
2023-05-10T08:36:23.660Z,62.12
2023-05-10T08:37:23.622Z,62.43
2023-05-10T08:38:23.627Z,62.96
2023-05-10T08:39:30.381Z,64.30
2023-05-10T08:40:24.578Z,65.01
2023-05-10T08:41:24.741Z,64.40
2023-05-10T08:42:23.544Z,65.71
2023-05-10T08:43:23.556Z,67.56
2023-05-10T08:44:23.549Z,66.86
2023-05-10T08:45:23.514Z,67.36
2023-05-10T08:46:23.545Z,67.90
2023-05-10T08:47:23.564Z,67.29
2023-05-10T08:48:23.521Z,68.20
2023-05-10T08:49:23.472Z,69.62
2023-05-10T08:50:23.452Z,70.53
2023-05-10T08:51:23.450Z,68.91
2023-05-10T08:52:23.439Z,68.80
2023-05-10T08:53:23.444Z,69.21
2023-05-10T08:54:23.397Z,69.95
2023-05-10T08:55:23.388Z,70.76
2023-05-10T08:56:23.994Z,71.37
2023-05-10T08:57:24.370Z,70.56
2023-05-10T08:58:25.046Z,71.50
2023-05-10T08:59:24.966Z,71.09
2023-05-10T09:00:25.539Z,71.91
2023-05-10T09:01:24.997Z,72.92
2023-05-10T09:02:25.361Z,73.36
2023-05-10T09:03:25.258Z,74.16
2023-05-10T09:04:24.764Z,74.57
2023-05-10T09:05:23.261Z,74.30
2023-05-10T09:06:23.251Z,75.21
2023-05-10T09:07:23.222Z,75.21
2023-05-10T09:08:23.210Z,76.83
2023-05-10T09:09:23.223Z,77.54
2023-05-10T09:10:23.213Z,77.48
2023-05-10T09:11:23.192Z,77.48
2023-05-10T09:12:23.160Z,78.69
2023-05-10T09:13:23.143Z,77.98
2023-05-10T09:14:23.158Z,77.68
2023-05-10T09:15:23.125Z,76.67
2023-05-10T09:16:23.253Z,77.98
2023-05-10T09:17:23.217Z,77.28
2023-05-10T09:18:23.112Z,78.08
2023-05-10T09:19:23.075Z,79.20
2023-05-10T09:20:23.055Z,77.48
2023-05-10T09:21:23.056Z,79.91
2023-05-10T09:22:23.022Z,79.20
2023-05-10T09:23:23.037Z,78.28
2023-05-10T09:24:23.054Z,77.88
2023-05-10T09:25:23.011Z,76.16
2023-05-10T09:26:22.983Z,77.68
2023-05-10T09:27:22.997Z,78.39
2023-05-10T09:28:22.953Z,78.39
2023-05-10T09:29:22.929Z,76.87
2023-05-10T09:30:22.941Z,78.08
2023-05-10T09:31:22.943Z,77.48
2023-05-10T09:32:22.934Z,75.65
2023-05-10T09:33:22.879Z,75.96
2023-05-10T09:34:22.863Z,77.58
2023-05-10T09:35:22.872Z,77.03
2023-05-10T09:36:22.836Z,77.75
2023-05-10T09:37:22.841Z,76.63
2023-05-10T09:38:22.813Z,77.37
2023-05-10T09:39:22.856Z,76.87
2023-05-10T09:40:22.805Z,77.17
2023-05-10T09:41:22.778Z,78.39
2023-05-10T09:42:22.767Z,77.98
2023-05-10T09:43:22.775Z,78.59
2023-05-10T09:44:22.748Z,75.85
2023-05-10T09:45:22.737Z,76.67
2023-05-10T09:46:22.749Z,78.39
2023-05-10T09:47:22.719Z,77.48
2023-05-10T09:48:22.686Z,76.77
2023-05-10T09:49:22.798Z,77.75
2023-05-10T09:50:22.668Z,78.55
2023-05-10T09:51:22.662Z,77.64
2023-05-10T09:52:22.635Z,77.64
2023-05-10T09:53:22.683Z,77.75
2023-05-10T09:54:22.613Z,77.44
2023-05-10T09:55:22.598Z,78.35
2023-05-10T09:56:22.584Z,79.67
2023-05-10T09:57:22.576Z,77.95
2023-05-10T09:58:22.616Z,77.84
2023-05-10T09:59:22.553Z,77.95
2023-05-10T10:00:22.538Z,78.66
2023-05-10T10:01:22.553Z,80.18
2023-05-10T10:02:22.548Z,80.78
2023-05-10T10:03:22.528Z,79.67
2023-05-10T10:04:22.597Z,77.84
2023-05-10T10:05:22.470Z,78.25
2023-05-10T10:06:29.530Z,78.25
2023-05-10T10:07:23.489Z,78.45
2023-05-10T10:08:22.446Z,78.31
2023-05-10T10:09:24.569Z,78.11
2023-05-10T10:10:23.115Z,79.22
2023-05-10T10:11:23.144Z,77.91
2023-05-10T10:12:23.334Z,77.61
2023-05-10T10:13:22.375Z,76.05
2023-05-10T10:14:22.328Z,76.97
2023-05-10T10:15:22.514Z,78.88
2023-05-10T10:16:22.335Z,79.90
2023-05-10T10:17:22.378Z,78.78
2023-05-10T10:18:22.356Z,78.58
2023-05-10T10:19:22.285Z,78.68
2023-05-10T10:20:22.277Z,78.17
2023-05-10T10:21:22.256Z,78.17
2023-05-10T10:22:22.267Z,77.87
2023-05-10T10:23:22.246Z,78.28
2023-05-10T10:24:22.216Z,78.58
2023-05-10T10:25:22.201Z,78.88
2023-05-10T10:26:22.191Z,78.99
2023-05-10T10:27:22.186Z,78.99
2023-05-10T10:28:22.168Z,78.08
2023-05-10T10:29:22.195Z,78.08
2023-05-10T10:30:22.139Z,79.90
2023-05-10T10:31:22.170Z,78.88
2023-05-10T10:32:22.182Z,79.19
2023-05-10T10:34:23.106Z,78.78
2023-05-10T10:35:22.074Z,79.19
2023-05-10T10:36:22.073Z,79.08
2023-05-10T10:37:22.096Z,79.39
2023-05-10T10:38:22.043Z,80.46
2023-05-10T10:39:22.037Z,80.66
2023-05-10T10:40:21.996Z,79.25
2023-05-10T10:41:22.031Z,79.25
2023-05-10T10:42:22.002Z,79.86
2023-05-10T10:43:21.979Z,79.86
2023-05-10T10:44:21.950Z,78.99
2023-05-10T10:45:21.991Z,80.30
2023-05-10T10:46:22.445Z,80.20
2023-05-10T10:47:21.943Z,80.60
2023-05-10T10:48:21.900Z,80.74
2023-05-10T10:49:21.900Z,81.65
2023-05-10T10:50:21.874Z,81.25
2023-05-10T10:51:21.889Z,81.45
2023-05-10T10:52:21.871Z,81.85
2023-05-10T10:53:21.864Z,82.56
2023-05-10T10:54:21.833Z,82.36
2023-05-10T10:55:21.856Z,82.36
2023-05-10T10:56:21.815Z,82.97
2023-05-10T10:57:21.800Z,83.47
2023-05-10T10:58:21.877Z,81.76
2023-05-10T10:59:21.785Z,80.40
2023-05-10T11:00:21.765Z,81.51
2023-05-10T11:01:21.800Z,81.71
2023-05-10T11:02:21.716Z,81.62
2023-05-10T11:03:21.726Z,80.64
2023-05-10T11:04:21.759Z,81.82
2023-05-10T11:05:21.696Z,81.71
2023-05-10T11:06:21.687Z,82.22
2023-05-10T11:07:21.654Z,83.23
2023-05-10T11:08:21.673Z,82.93
2023-05-10T11:09:21.639Z,82.83
2023-05-10T11:10:21.620Z,83.54
2023-05-10T11:11:21.611Z,83.23
2023-05-10T11:12:21.586Z,82.18
2023-05-10T11:13:21.596Z,81.98
2023-05-10T11:14:21.577Z,80.87
2023-05-10T11:15:21.561Z,81.88
2023-05-10T11:16:21.602Z,81.78
2023-05-10T11:17:21.524Z,81.07
2023-05-10T11:18:21.568Z,78.95
2023-05-10T11:19:21.670Z,79.66
2023-05-10T11:20:21.488Z,80.36
2023-05-10T11:21:21.480Z,79.75
2023-05-10T11:22:21.466Z,80.77
2023-05-10T11:23:21.458Z,80.43
2023-05-10T11:24:21.457Z,81.13
2023-05-10T11:25:21.440Z,81.03
2023-05-10T11:26:21.407Z,80.53
2023-05-10T11:27:21.398Z,80.43
2023-05-10T11:28:21.415Z,79.01
2023-05-10T11:29:21.461Z,79.88
2023-05-10T11:30:21.348Z,80.08
2023-05-10T11:31:21.388Z,78.27
2023-05-10T11:32:21.327Z,79.28
2023-05-10T11:33:21.327Z,79.28
2023-05-10T11:34:21.307Z,78.77
2023-05-10T11:35:21.325Z,78.37
2023-05-10T11:36:21.290Z,78.67
2023-05-10T11:37:21.255Z,79.38
2023-05-10T11:38:21.268Z,79.48
2023-05-10T11:39:21.283Z,79.88
2023-05-10T11:40:21.233Z,79.68
2023-05-10T11:41:21.222Z,79.64
2023-05-10T11:42:21.200Z,79.14
2023-05-10T11:43:21.206Z,78.43
2023-05-10T11:44:21.168Z,78.50
2023-05-10T11:45:21.177Z,78.19
2023-05-10T11:46:21.166Z,77.79
2023-05-10T11:47:21.155Z,78.19
2023-05-10T11:48:21.143Z,77.99
2023-05-10T11:49:21.109Z,77.89
2023-05-10T11:50:21.086Z,77.49
2023-05-10T11:51:21.083Z,77.28
2023-05-10T11:52:21.112Z,77.99
2023-05-10T11:53:21.063Z,78.36
2023-05-10T11:54:21.047Z,77.86
2023-05-10T11:55:21.032Z,77.75
2023-05-10T11:56:21.026Z,77.35
2023-05-10T11:57:21.050Z,77.04
2023-05-10T11:58:21.002Z,77.55
2023-05-10T11:59:21.004Z,76.10
2023-05-10T12:00:20.954Z,74.49
2023-05-10T12:01:20.953Z,76.71
2023-05-10T12:02:21.037Z,75.30
2023-05-10T12:03:21.033Z,75.70
2023-05-10T12:04:21.034Z,75.80
2023-05-10T12:05:20.929Z,76.20
2023-05-10T12:06:20.905Z,76.71
2023-05-10T12:07:20.886Z,77.51
2023-05-10T12:08:20.859Z,77.01
2023-05-10T12:09:31.394Z,77.72
2023-05-10T12:10:21.824Z,76.20
2023-05-10T12:11:20.838Z,76.81
2023-05-10T12:12:20.835Z,75.60
2023-05-10T12:13:20.815Z,73.88
2023-05-10T12:14:20.769Z,76.00
2023-05-10T12:15:20.895Z,76.97
2023-05-10T12:16:20.822Z,76.40
2023-05-10T12:17:20.779Z,75.90
2023-05-10T12:18:20.809Z,76.91
2023-05-10T12:19:20.825Z,75.80
2023-05-10T12:20:20.886Z,77.08
2023-05-10T12:21:21.032Z,76.37
2023-05-10T12:22:20.766Z,76.87
2023-05-10T12:23:20.667Z,76.54
2023-05-10T12:24:21.703Z,75.13
2023-05-10T12:25:22.130Z,75.43
2023-05-10T12:26:20.625Z,76.54
2023-05-10T12:27:20.598Z,75.70
2023-05-10T12:28:20.585Z,76.80
2023-05-10T12:29:20.573Z,75.70
2023-05-10T12:30:21.838Z,76.20
2023-05-10T12:31:20.569Z,77.00
2023-05-10T12:32:20.643Z,78.51
2023-05-10T12:33:20.536Z,78.11
2023-05-10T12:34:20.517Z,75.29
2023-05-10T12:35:22.566Z,75.70
2023-05-10T12:36:21.140Z,75.70
2023-05-10T12:37:20.480Z,75.99
2023-05-10T12:38:20.450Z,74.79
2023-05-10T12:39:20.502Z,74.58
2023-05-10T12:40:20.437Z,74.08
2023-05-10T12:41:20.451Z,74.62
2023-05-10T12:42:20.403Z,74.73
2023-05-10T12:43:20.399Z,74.02
2023-05-10T12:44:20.390Z,73.98
2023-05-10T12:45:20.374Z,74.79
2023-05-10T12:46:20.377Z,75.19
2023-05-10T12:47:20.352Z,74.89
2023-05-10T12:48:20.316Z,74.99
2023-05-10T12:49:20.369Z,76.50
2023-05-10T12:50:20.302Z,74.99
2023-05-10T12:51:20.293Z,73.98
2023-05-10T12:52:20.291Z,72.88
2023-05-10T12:53:20.253Z,73.88
2023-05-10T12:54:20.260Z,74.73